createdAt,value
2023-05-16T00:00:41.470Z,52.27
2023-05-16T00:03:08.458Z,52.34
2023-05-16T00:05:36.368Z,52.44
2023-05-16T00:08:03.246Z,52.34
2023-05-16T00:10:30.126Z,52.47
2023-05-16T00:12:57.524Z,52.64
2023-05-16T00:15:25.098Z,52.83
2023-05-16T00:17:52.571Z,52.85
2023-05-16T00:20:23.450Z,52.86
2023-05-16T00:22:51.305Z,53.07
2023-05-16T00:25:18.636Z,53.19
2023-05-16T00:27:45.851Z,53.46
2023-05-16T00:30:13.055Z,53.31
2023-05-16T00:32:40.037Z,53.31
2023-05-16T00:35:10.581Z,53.43
2023-05-16T00:37:38.784Z,53.30
2023-05-16T00:40:06.608Z,53.46
2023-05-16T00:42:33.622Z,53.48
2023-05-16T00:45:00.720Z,53.60
2023-05-16T00:47:28.869Z,53.65
2023-05-16T00:49:56.436Z,53.56
2023-05-16T00:52:23.751Z,53.62
2023-05-16T00:54:51.948Z,53.85
2023-05-16T00:57:19.247Z,53.72
2023-05-16T00:59:47.399Z,53.93
2023-05-16T01:02:14.872Z,54.19
2023-05-16T01:04:43.315Z,54.13
2023-05-16T01:07:10.472Z,54.23
2023-05-16T01:09:37.717Z,54.23
2023-05-16T01:12:32.675Z,54.70
2023-05-16T01:15:07.533Z,54.67
2023-05-16T01:18:17.123Z,54.78
2023-05-16T01:20:57.087Z,54.85
2023-05-16T01:23:53.645Z,54.97
2023-05-16T01:26:26.972Z,55.01
2023-05-16T01:28:54.983Z,55.04
2023-05-16T01:31:23.504Z,55.16
2023-05-16T01:33:51.876Z,55.28
2023-05-16T01:36:26.577Z,55.43
2023-05-16T01:39:22.062Z,55.72
2023-05-16T01:42:08.803Z,55.78
2023-05-16T01:44:55.846Z,55.79
2023-05-16T01:47:26.840Z,55.73
2023-05-16T01:50:18.645Z,56.08
2023-05-16T01:52:52.098Z,55.93
2023-05-16T01:55:39.380Z,56.56
2023-05-16T01:58:08.752Z,56.21
2023-05-16T02:00:35.901Z,56.39
2023-05-16T02:03:02.994Z,56.58
2023-05-16T02:05:30.135Z,56.51
2023-05-16T02:07:59.442Z,56.61
2023-05-16T02:10:27.568Z,57.07
2023-05-16T02:12:54.508Z,57.48
2023-05-16T02:15:21.424Z,57.57
2023-05-16T02:17:48.972Z,57.75
2023-05-16T02:20:16.389Z,58.24
2023-05-16T02:22:44.190Z,58.61
2023-05-16T02:25:11.186Z,58.93
2023-05-16T02:27:38.084Z,58.73
2023-05-16T02:30:05.582Z,59.11
2023-05-16T02:32:33.902Z,59.15
2023-05-16T02:35:00.891Z,59.28
2023-05-16T02:37:27.772Z,59.78
2023-05-16T02:39:54.631Z,59.92
2023-05-16T02:42:21.550Z,60.10
2023-05-16T02:44:48.408Z,60.27
2023-05-16T02:47:15.335Z,60.38
2023-05-16T02:49:43.598Z,60.66
2023-05-16T02:52:11.797Z,60.81
2023-05-16T02:54:38.694Z,60.95
2023-05-16T02:57:05.669Z,61.01
2023-05-16T02:59:32.540Z,61.04
2023-05-16T03:01:59.766Z,60.92
2023-05-16T03:04:26.720Z,61.08
2023-05-16T03:06:54.338Z,60.92
2023-05-16T03:09:21.762Z,60.94
2023-05-16T03:11:48.770Z,60.93
2023-05-16T03:14:15.649Z,61.16
2023-05-16T03:16:44.000Z,61.14
2023-05-16T03:19:11.510Z,60.86
2023-05-16T03:21:38.427Z,61.23
2023-05-16T03:24:06.604Z,61.11
2023-05-16T03:26:33.506Z,60.91
2023-05-16T03:29:00.426Z,61.04
2023-05-16T03:31:27.432Z,61.01
2023-05-16T03:33:54.390Z,61.04
2023-05-16T03:36:22.456Z,60.86
2023-05-16T03:38:49.385Z,61.01
2023-05-16T03:41:16.248Z,60.76
2023-05-16T03:43:43.166Z,60.61
2023-05-16T03:46:10.177Z,60.88
2023-05-16T03:48:37.106Z,60.76
2023-05-16T03:51:04.022Z,60.58
2023-05-16T03:53:30.896Z,60.49
2023-05-16T03:55:57.977Z,60.37
2023-05-16T03:58:24.869Z,60.21
2023-05-16T04:00:51.724Z,60.22
2023-05-16T04:03:18.648Z,60.16
2023-05-16T04:05:45.664Z,59.84
2023-05-16T04:08:12.578Z,60.12
2023-05-16T04:10:39.458Z,59.93
2023-05-16T04:13:06.366Z,60.04
2023-05-16T04:15:33.713Z,59.85
2023-05-16T04:18:00.682Z,59.75
2023-05-16T04:20:27.672Z,59.79
2023-05-16T04:22:54.866Z,59.71
2023-05-16T04:25:21.802Z,59.89
2023-05-16T04:27:48.706Z,59.89
2023-05-16T04:30:15.865Z,59.62
2023-05-16T04:32:42.895Z,59.65
2023-05-16T04:35:10.053Z,59.64
2023-05-16T04:37:37.953Z,59.39
2023-05-16T04:40:07.657Z,59.74
2023-05-16T04:42:34.766Z,59.18
2023-05-16T04:45:03.524Z,59.53
2023-05-16T04:47:31.737Z,59.40
2023-05-16T04:49:58.661Z,59.30
2023-05-16T04:52:25.549Z,59.13
2023-05-16T04:54:52.594Z,58.92
2023-05-16T04:57:19.538Z,58.95
2023-05-16T04:59:46.437Z,58.88
2023-05-16T05:02:13.424Z,58.92
2023-05-16T05:04:40.542Z,58.77
2023-05-16T05:07:08.186Z,58.77
2023-05-16T05:09:35.070Z,58.70
2023-05-16T05:12:01.965Z,58.88
2023-05-16T05:14:28.843Z,58.70
2023-05-16T05:16:55.974Z,58.68
2023-05-16T05:19:22.887Z,58.76
2023-05-16T05:21:49.807Z,58.36
2023-05-16T05:24:16.694Z,58.78
2023-05-16T05:26:43.588Z,58.49
2023-05-16T05:29:10.439Z,58.67
2023-05-16T05:31:37.359Z,58.63
2023-05-16T05:34:04.339Z,58.71
2023-05-16T05:36:31.600Z,58.59
2023-05-16T05:38:58.518Z,58.50
2023-05-16T05:41:26.296Z,58.46
2023-05-16T05:43:53.162Z,58.73
2023-05-16T05:46:20.103Z,58.37
2023-05-16T05:48:47.042Z,58.53
2023-05-16T05:51:14.319Z,58.24
2023-05-16T05:53:41.729Z,58.35
2023-05-16T05:56:08.773Z,58.24
2023-05-16T05:58:35.792Z,58.35
2023-05-16T06:01:02.657Z,58.24
2023-05-16T06:03:29.600Z,58.16
2023-05-16T06:05:56.551Z,58.23
2023-05-16T06:08:23.508Z,58.20
2023-05-16T06:10:50.503Z,58.18
2023-05-16T06:13:17.348Z,58.18
2023-05-16T06:15:44.188Z,58.02
2023-05-16T06:18:11.113Z,58.00
2023-05-16T06:20:38.036Z,57.94
2023-05-16T06:23:04.906Z,57.86
2023-05-16T06:25:32.000Z,57.95
2023-05-16T06:27:58.860Z,58.00
2023-05-16T06:30:25.820Z,57.79
2023-05-16T06:32:52.708Z,57.72
2023-05-16T06:35:19.582Z,57.50
2023-05-16T06:37:46.468Z,57.20
2023-05-16T06:40:14.272Z,56.96
2023-05-16T06:42:41.171Z,56.84
2023-05-16T06:45:09.015Z,56.84
2023-05-16T06:47:36.052Z,56.92
2023-05-16T06:50:03.049Z,56.81
2023-05-16T06:52:31.144Z,56.37
2023-05-16T06:54:58.118Z,56.25
2023-05-16T06:57:25.005Z,56.04
2023-05-16T06:59:51.895Z,55.78
2023-05-16T07:02:18.862Z,55.91
2023-05-16T07:04:45.953Z,55.73
2023-05-16T07:07:13.498Z,55.18
2023-05-16T07:09:40.404Z,54.85
2023-05-16T07:12:07.522Z,54.14
2023-05-16T07:14:34.426Z,53.97
2023-05-16T07:17:01.854Z,53.72
2023-05-16T07:19:28.948Z,53.11
2023-05-16T07:21:56.029Z,53.17
2023-05-16T07:24:22.968Z,52.88
2023-05-16T07:26:50.009Z,52.52
2023-05-16T07:29:16.951Z,52.30
2023-05-16T07:31:43.969Z,51.79
2023-05-16T07:34:12.063Z,52.02
2023-05-16T07:36:39.381Z,51.13
2023-05-16T07:39:06.391Z,51.52
2023-05-16T07:41:33.297Z,51.70
2023-05-16T07:44:00.195Z,51.63
2023-05-16T07:46:27.271Z,52.04
2023-05-16T07:48:54.198Z,51.98
2023-05-16T07:51:21.100Z,51.36
2023-05-16T07:53:48.051Z,51.27
2023-05-16T07:56:15.050Z,51.42
2023-05-16T07:58:42.318Z,51.11
2023-05-16T08:01:09.232Z,51.19
2023-05-16T08:03:36.914Z,51.03
2023-05-16T08:06:04.081Z,51.13
2023-05-16T08:08:31.268Z,51.25
2023-05-16T08:10:58.192Z,51.36
2023-05-16T08:13:25.126Z,50.82
2023-05-16T08:15:52.105Z,50.94
2023-05-16T08:18:22.081Z,51.08
2023-05-16T08:20:49.658Z,50.90
2023-05-16T08:23:16.570Z,50.63
2023-05-16T08:25:43.498Z,50.39
2023-05-16T08:28:10.480Z,50.61
2023-05-16T08:30:37.370Z,50.34
2023-05-16T08:33:05.481Z,50.02
2023-05-16T08:35:33.225Z,50.42
2023-05-16T08:38:00.488Z,50.42
2023-05-16T08:40:28.393Z,50.81
2023-05-16T08:42:55.519Z,50.25
2023-05-16T08:45:23.564Z,50.28
2023-05-16T08:47:51.741Z,50.65
2023-05-16T08:50:18.751Z,50.60
2023-05-16T08:52:51.859Z,50.23
2023-05-16T08:55:22.172Z,50.24
2023-05-16T08:57:52.982Z,50.32
2023-05-16T09:00:20.434Z,50.21
2023-05-16T09:02:47.500Z,50.09
2023-05-16T09:05:17.397Z,49.62
2023-05-16T09:07:45.019Z,49.36
2023-05-16T09:10:12.903Z,49.61
2023-05-16T09:12:41.940Z,49.74
2023-05-16T09:15:10.973Z,49.82
2023-05-16T09:17:48.728Z,50.00
2023-05-16T09:20:18.730Z,50.08
2023-05-16T09:22:55.093Z,50.17
2023-05-16T09:28:01.691Z,50.30
2023-05-16T09:30:32.164Z,50.09
2023-05-16T09:32:59.591Z,50.03
2023-05-16T09:37:56.979Z,50.08
2023-05-16T09:40:24.523Z,49.76
2023-05-16T09:43:06.959Z,50.12
2023-05-16T09:45:35.673Z,50.23
2023-05-16T09:48:10.101Z,50.31
2023-05-16T09:50:37.986Z,50.02
2023-05-16T09:53:05.391Z,50.42
2023-05-16T09:55:35.302Z,49.88
2023-05-16T09:58:02.343Z,50.37
2023-05-16T10:00:34.119Z,50.10
2023-05-16T10:03:05.197Z,49.81
2023-05-16T10:05:34.983Z,49.55
2023-05-16T10:08:03.957Z,49.91
2023-05-16T10:10:31.634Z,49.27
2023-05-16T10:13:01.545Z,49.13
2023-05-16T10:15:30.209Z,49.40
2023-05-16T10:18:01.949Z,49.32
2023-05-16T10:20:29.304Z,49.46
2023-05-16T10:22:58.188Z,49.25
2023-05-16T10:25:38.867Z,49.69
2023-05-16T10:28:07.218Z,49.10
2023-05-16T10:30:35.532Z,49.03
2023-05-16T10:33:04.377Z,48.91
2023-05-16T10:35:32.819Z,49.13
2023-05-16T10:38:00.639Z,48.99
2023-05-16T10:40:29.127Z,48.97
2023-05-16T10:43:01.869Z,48.51
2023-05-16T10:45:29.372Z,48.25
2023-05-16T10:48:01.974Z,47.94
2023-05-16T10:50:46.023Z,47.63
2023-05-16T10:53:30.613Z,46.89
2023-05-16T10:56:00.571Z,46.74
2023-05-16T10:58:39.434Z,46.09
2023-05-16T11:01:24.945Z,46.28
2023-05-16T11:04:00.065Z,45.63
2023-05-16T11:06:32.713Z,45.60
2023-05-16T11:09:10.443Z,45.98
2023-05-16T11:11:53.511Z,46.44
2023-05-16T11:14:33.087Z,45.53
2023-05-16T11:17:21.272Z,45.06
2023-05-16T11:19:59.261Z,45.14
2023-05-16T11:22:29.201Z,43.91
2023-05-16T11:25:01.240Z,43.25
2023-05-16T11:27:31.580Z,43.44
2023-05-16T11:30:10.138Z,42.19
2023-05-16T11:32:39.337Z,42.43
2023-05-16T11:35:25.640Z,42.22
2023-05-16T11:37:53.586Z,41.65
2023-05-16T11:40:20.537Z,42.28
2023-05-16T11:42:48.492Z,41.31
2023-05-16T11:45:17.523Z,40.96
2023-05-16T11:47:47.437Z,41.64
2023-05-16T11:50:20.466Z,41.74
2023-05-16T11:52:53.711Z,41.72
2023-05-16T11:55:39.571Z,39.47
2023-05-16T11:58:07.992Z,40.03
2023-05-16T12:00:35.117Z,39.45
2023-05-16T12:03:05.594Z,38.79
2023-05-16T12:05:34.378Z,38.65
2023-05-16T12:08:02.636Z,38.66
2023-05-16T12:10:34.019Z,38.46
2023-05-16T12:13:03.325Z,38.66
2023-05-16T12:15:30.586Z,38.96
2023-05-16T12:17:57.960Z,37.39
2023-05-16T12:20:26.134Z,36.65
2023-05-16T12:22:53.320Z,36.85
2023-05-16T12:25:30.024Z,36.39
2023-05-16T12:28:03.025Z,35.99
2023-05-16T12:30:32.232Z,35.82
2023-05-16T12:33:07.893Z,35.64
2023-05-16T12:35:38.345Z,35.68
2023-05-16T12:38:07.718Z,35.59
2023-05-16T12:40:37.235Z,34.57
2023-05-16T12:43:04.497Z,34.97
2023-05-16T12:45:33.367Z,34.81
2023-05-16T12:48:06.921Z,34.21
2023-05-16T12:50:34.207Z,33.82
2023-05-16T12:53:01.486Z,34.05
2023-05-16T12:55:28.414Z,34.31
2023-05-16T12:57:57.741Z,34.05
2023-05-16T13:00:24.874Z,34.03
2023-05-16T13:02:52.321Z,33.76
2023-05-16T13:05:20.529Z,34.53
2023-05-16T13:07:47.545Z,33.32
2023-05-16T13:10:14.442Z,32.58
2023-05-16T13:12:41.980Z,32.75
2023-05-16T13:15:11.788Z,32.96
2023-05-16T13:17:39.830Z,32.50
2023-05-16T13:20:13.461Z,31.41
2023-05-16T13:22:41.402Z,31.83
2023-05-16T13:25:09.371Z,31.67
2023-05-16T13:27:36.640Z,31.75
2023-05-16T13:30:04.477Z,32.00
2023-05-16T13:32:31.499Z,32.58
2023-05-16T13:34:58.478Z,31.49
2023-05-16T13:37:25.709Z,30.63
2023-05-16T13:39:54.739Z,30.67
2023-05-16T13:42:22.395Z,29.87
2023-05-16T13:44:49.925Z,29.28
2023-05-16T13:47:17.119Z,29.23
2023-05-16T13:49:46.300Z,28.52
2023-05-16T13:52:13.710Z,29.09
2023-05-16T13:54:42.688Z,29.18
2023-05-16T13:57:10.261Z,28.54
2023-05-16T14:00:10.853Z,28.86
2023-05-16T14:02:26.266Z,28.77
2023-05-16T14:04:53.983Z,28.43
2023-05-16T14:07:21.302Z,28.37
2023-05-16T14:09:48.457Z,28.20
2023-05-16T14:12:15.783Z,28.67
2023-05-16T14:14:42.919Z,29.33
2023-05-16T14:17:10.070Z,29.07
2023-05-16T14:19:37.349Z,28.65
2023-05-16T14:22:04.568Z,28.22
2023-05-16T14:24:31.641Z,28.67
2023-05-16T14:26:58.777Z,28.48
2023-05-16T14:29:26.129Z,28.57
2023-05-16T14:31:53.488Z,28.52
2023-05-16T14:34:22.270Z,29.05
2023-05-16T14:36:49.650Z,28.87
2023-05-16T14:39:16.788Z,28.42
2023-05-16T14:41:43.944Z,29.04
2023-05-16T14:44:10.989Z,28.29
2023-05-16T14:46:38.089Z,28.43
2023-05-16T14:49:05.547Z,28.62
2023-05-16T14:51:32.721Z,28.59
2023-05-16T14:53:59.899Z,29.15
2023-05-16T14:56:28.160Z,29.23
2023-05-16T14:58:55.449Z,27.84
2023-05-16T15:01:22.994Z,27.68
2023-05-16T15:03:55.750Z,27.57
2023-05-16T15:06:27.555Z,27.53
2023-05-16T15:08:55.043Z,27.36
2023-05-16T15:11:22.100Z,27.09
2023-05-16T15:13:49.176Z,27.13
2023-05-16T15:16:16.833Z,26.93
2023-05-16T15:18:44.180Z,27.27
2023-05-16T15:21:11.225Z,27.17
2023-05-16T15:23:38.286Z,27.11
2023-05-16T15:26:05.426Z,26.90
2023-05-16T15:28:32.352Z,27.37
2023-05-16T15:30:59.248Z,27.08
2023-05-16T15:33:26.244Z,27.41
2023-05-16T15:35:53.164Z,27.47
2023-05-16T15:38:20.067Z,28.20
2023-05-16T15:40:47.938Z,27.91
2023-05-16T15:43:17.928Z,27.67
2023-05-16T15:45:45.615Z,27.19
2023-05-16T15:48:13.082Z,27.50
2023-05-16T15:50:40.104Z,28.24
2023-05-16T15:53:06.977Z,28.15
2023-05-16T15:55:33.874Z,28.65
2023-05-16T15:58:03.853Z,29.12
2023-05-16T16:00:30.897Z,29.46
2023-05-16T16:02:58.097Z,29.87
2023-05-16T16:05:25.087Z,30.14
2023-05-16T16:07:51.994Z,29.75
2023-05-16T16:10:19.482Z,29.75
2023-05-16T16:13:04.989Z,29.42
2023-05-16T16:15:33.465Z,29.47
2023-05-16T16:18:00.999Z,29.66
2023-05-16T16:20:28.410Z,30.35
2023-05-16T16:22:55.344Z,30.84
2023-05-16T16:25:22.323Z,30.55
2023-05-16T16:27:49.314Z,30.88
2023-05-16T16:30:16.215Z,31.20
2023-05-16T16:32:43.184Z,31.15
2023-05-16T16:35:10.187Z,31.26
2023-05-16T16:37:37.090Z,31.75
2023-05-16T16:40:04.924Z,31.52
2023-05-16T16:42:31.851Z,31.27
2023-05-16T16:44:58.786Z,31.22
2023-05-16T16:47:26.338Z,31.17
2023-05-16T16:49:53.274Z,31.54
2023-05-16T16:52:20.176Z,31.37
2023-05-16T16:54:47.147Z,30.78
2023-05-16T16:57:14.080Z,31.00
2023-05-16T16:59:42.563Z,31.24
2023-05-16T17:02:10.138Z,30.88
2023-05-16T17:04:37.144Z,30.69
2023-05-16T17:07:04.153Z,30.96
2023-05-16T17:09:31.309Z,30.53
2023-05-16T17:11:58.288Z,30.16
2023-05-16T17:14:25.213Z,30.37
2023-05-16T17:16:52.151Z,29.82
2023-05-16T17:19:19.159Z,29.57
2023-05-16T17:21:47.409Z,29.82
2023-05-16T17:24:14.327Z,29.42
2023-05-16T17:26:41.438Z,29.51
2023-05-16T17:29:08.380Z,29.31
2023-05-16T17:31:35.465Z,29.49
2023-05-16T17:34:02.416Z,29.83
2023-05-16T17:36:29.516Z,30.20
2023-05-16T17:38:56.468Z,30.46
2023-05-16T17:41:23.548Z,30.49
2023-05-16T17:43:50.663Z,30.75
2023-05-16T17:46:17.592Z,30.95
2023-05-16T17:48:44.915Z,31.48
2023-05-16T17:51:11.873Z,31.26
2023-05-16T17:53:39.199Z,31.53
2023-05-16T17:56:06.140Z,31.42
2023-05-16T17:58:33.064Z,31.59
2023-05-16T18:01:00.149Z,31.88
2023-05-16T18:03:27.089Z,31.72
2023-05-16T18:05:54.034Z,31.99
2023-05-16T18:08:21.020Z,32.38
2023-05-16T18:10:52.299Z,32.27
2023-05-16T18:13:20.502Z,32.98
2023-05-16T18:15:47.707Z,33.04
2023-05-16T18:18:14.706Z,33.36
2023-05-16T18:20:42.875Z,33.40
2023-05-16T18:23:09.814Z,33.62
2023-05-16T18:25:36.718Z,33.81
2023-05-16T18:28:03.913Z,33.80
2023-05-16T18:30:30.840Z,34.21
2023-05-16T18:32:57.895Z,34.49
2023-05-16T18:35:27.600Z,34.64
2023-05-16T18:37:54.821Z,34.66
2023-05-16T18:40:22.560Z,35.12
2023-05-16T18:42:49.486Z,35.57
2023-05-16T18:45:16.904Z,36.06
2023-05-16T18:47:43.881Z,36.62
2023-05-16T18:50:11.635Z,36.96
2023-05-16T18:52:40.538Z,36.72
2023-05-16T18:55:08.069Z,37.15
2023-05-16T18:57:35.003Z,37.22
2023-05-16T19:00:02.019Z,37.28
2023-05-16T19:02:40.944Z,37.64
2023-05-16T19:05:09.663Z,37.69
2023-05-16T19:07:36.755Z,38.01
2023-05-16T19:10:04.400Z,37.77
2023-05-16T19:12:31.764Z,38.04
2023-05-16T19:14:58.701Z,38.12
2023-05-16T19:17:25.779Z,38.12
2023-05-16T19:19:53.010Z,38.07
2023-05-16T19:22:19.943Z,38.76
2023-05-16T19:24:46.935Z,38.66
2023-05-16T19:27:13.869Z,39.07
2023-05-16T19:29:40.794Z,39.02
2023-05-16T19:32:08.069Z,38.97
2023-05-16T19:34:38.041Z,39.43
2023-05-16T19:37:05.399Z,39.42
2023-05-16T19:39:32.311Z,39.48
2023-05-16T19:42:06.590Z,39.62
2023-05-16T19:44:34.850Z,39.66
2023-05-16T19:47:01.837Z,39.87
2023-05-16T19:49:31.517Z,39.96
2023-05-16T19:51:58.601Z,40.09
2023-05-16T19:54:25.731Z,40.73
2023-05-16T19:56:52.720Z,40.42
2023-05-16T19:59:20.520Z,40.52
2023-05-16T20:01:47.521Z,40.60
2023-05-16T20:04:14.595Z,40.61
2023-05-16T20:06:41.780Z,40.81
2023-05-16T20:09:08.796Z,41.00
2023-05-16T20:11:35.837Z,40.85
2023-05-16T20:14:02.746Z,41.16
2023-05-16T20:16:29.678Z,41.36
2023-05-16T20:18:56.647Z,41.49
2023-05-16T20:21:23.727Z,41.60
2023-05-16T20:23:50.651Z,42.12
2023-05-16T20:26:17.580Z,42.12
2023-05-16T20:28:44.508Z,42.40
2023-05-16T20:31:11.469Z,42.47
2023-05-16T20:33:38.555Z,42.84
2023-05-16T20:36:05.584Z,42.63
2023-05-16T20:38:32.485Z,42.81
2023-05-16T20:41:00.335Z,43.18
2023-05-16T20:43:27.257Z,43.13
2023-05-16T20:45:54.140Z,43.63
2023-05-16T20:48:21.288Z,43.72
2023-05-16T20:50:48.240Z,43.71
2023-05-16T20:53:15.247Z,44.00
2023-05-16T20:55:42.137Z,44.13
2023-05-16T20:58:09.095Z,43.96
2023-05-16T21:00:36.000Z,44.20
2023-05-16T21:03:03.232Z,44.17
2023-05-16T21:05:30.347Z,44.33
2023-05-16T21:07:57.289Z,44.42
2023-05-16T21:10:25.276Z,44.56
2023-05-16T21:12:52.178Z,44.76
2023-05-16T21:15:20.405Z,44.93
2023-05-16T21:17:49.258Z,45.21
2023-05-16T21:20:16.244Z,45.28
2023-05-16T21:22:43.385Z,45.67
2023-05-16T21:25:10.413Z,45.59
2023-05-16T21:27:37.371Z,46.21
2023-05-16T21:30:04.585Z,45.95
2023-05-16T21:32:32.608Z,46.07
2023-05-16T21:35:04.942Z,46.15
2023-05-16T21:37:31.840Z,45.89
2023-05-16T21:39:58.846Z,46.66
2023-05-16T21:42:25.811Z,46.75
2023-05-16T21:44:52.700Z,46.45
2023-05-16T21:47:19.660Z,46.70
2023-05-16T21:49:46.639Z,46.90
2023-05-16T21:52:13.535Z,46.81
2023-05-16T21:54:40.424Z,47.44
2023-05-16T21:57:07.337Z,47.86
2023-05-16T21:59:34.291Z,47.83
2023-05-16T22:02:01.181Z,47.88
2023-05-16T22:04:28.167Z,48.26
2023-05-16T22:06:55.210Z,48.49
2023-05-16T22:09:22.104Z,49.03
2023-05-16T22:11:49.064Z,48.95
2023-05-16T22:14:16.006Z,48.90
2023-05-16T22:16:42.996Z,49.08
2023-05-16T22:19:09.929Z,49.13
2023-05-16T22:21:36.852Z,48.89
2023-05-16T22:24:03.850Z,49.45
2023-05-16T22:26:30.753Z,49.77
2023-05-16T22:28:57.772Z,49.55
2023-05-16T22:31:24.658Z,49.72
2023-05-16T22:33:51.592Z,49.70
2023-05-16T22:36:18.512Z,50.00
2023-05-16T22:38:45.436Z,50.36
2023-05-16T22:41:12.335Z,50.40
2023-05-16T22:43:39.539Z,50.32
2023-05-16T22:46:06.513Z,50.22
2023-05-16T22:48:33.631Z,50.45
2023-05-16T22:51:02.040Z,50.96
2023-05-16T22:53:29.412Z,50.82
2023-05-16T22:55:56.360Z,50.76
2023-05-16T22:58:23.289Z,51.20
2023-05-16T23:00:50.244Z,51.08
2023-05-16T23:03:17.241Z,50.92
2023-05-16T23:05:44.200Z,51.33
2023-05-16T23:08:11.381Z,51.45
2023-05-16T23:10:38.287Z,51.49
2023-05-16T23:13:05.188Z,52.21
2023-05-16T23:15:32.094Z,51.83
2023-05-16T23:17:59.065Z,51.96
2023-05-16T23:20:26.077Z,52.07
2023-05-16T23:22:52.993Z,52.16
2023-05-16T23:25:19.977Z,52.35
2023-05-16T23:27:46.880Z,52.53
2023-05-16T23:30:14.273Z,52.76
2023-05-16T23:32:41.310Z,53.16
2023-05-16T23:35:08.368Z,53.43
2023-05-16T23:37:35.262Z,53.74
2023-05-16T23:40:02.155Z,53.71
2023-05-16T23:42:29.129Z,53.62
2023-05-16T23:44:56.026Z,53.63
2023-05-16T23:47:23.141Z,53.82
2023-05-16T23:49:50.097Z,53.90
2023-05-16T23:52:16.996Z,54.18
2023-05-16T23:54:45.341Z,54.11
2023-05-16T23:57:12.224Z,54.40
2023-05-16T23:59:39.803Z,54.24
